sensor_id;sensor_type;location;lat;lon;timestamp;P1;durP1;ratioP1;P2;durP2;ratioP2
69087;SDS011;56190;43.562;5.036;2022-08-19T00:00:00;1.70;;;1.00;;
69087;SDS011;56190;43.562;5.036;2022-08-19T00:02:25;3.17;;;1.33;;
69087;SDS011;56190;43.562;5.036;2022-08-19T00:04:51;3.00;;;1.15;;
69087;SDS011;56190;43.562;5.036;2022-08-19T00:07:20;1.15;;;1.02;;
69087;SDS011;56190;43.562;5.036;2022-08-19T00:09:46;4.30;;;1.05;;
69087;SDS011;56190;43.562;5.036;2022-08-19T00:12:11;1.55;;;0.95;;
69087;SDS011;56190;43.562;5.036;2022-08-19T00:14:37;1.27;;;1.02;;
69087;SDS011;56190;43.562;5.036;2022-08-19T00:17:03;1.15;;;0.80;;
69087;SDS011;56190;43.562;5.036;2022-08-19T00:19:28;1.88;;;1.20;;
69087;SDS011;56190;43.562;5.036;2022-08-19T00:21:54;1.20;;;1.10;;
69087;SDS011;56190;43.562;5.036;2022-08-19T00:24:21;1.17;;;0.98;;
69087;SDS011;56190;43.562;5.036;2022-08-19T00:26:46;1.23;;;1.10;;
69087;SDS011;56190;43.562;5.036;2022-08-19T00:29:12;1.98;;;1.10;;
69087;SDS011;56190;43.562;5.036;2022-08-19T00:31:38;3.45;;;1.30;;
69087;SDS011;56190;43.562;5.036;2022-08-19T00:34:03;2.00;;;1.20;;
69087;SDS011;56190;43.562;5.036;2022-08-19T00:36:29;1.10;;;1.00;;
69087;SDS011;56190;43.562;5.036;2022-08-19T00:38:54;1.30;;;1.20;;
69087;SDS011;56190;43.562;5.036;2022-08-19T00:41:20;2.00;;;1.17;;
69087;SDS011;56190;43.562;5.036;2022-08-19T00:43:59;2.92;;;1.02;;
69087;SDS011;56190;43.562;5.036;2022-08-19T00:46:25;1.88;;;1.33;;
69087;SDS011;56190;43.562;5.036;2022-08-19T00:48:51;2.03;;;1.40;;
69087;SDS011;56190;43.562;5.036;2022-08-19T00:51:16;2.65;;;1.27;;
69087;SDS011;56190;43.562;5.036;2022-08-19T00:53:41;1.30;;;1.20;;
69087;SDS011;56190;43.562;5.036;2022-08-19T00:56:07;1.48;;;1.30;;
69087;SDS011;56190;43.562;5.036;2022-08-19T00:58:34;2.72;;;1.70;;
69087;SDS011;56190;43.562;5.036;2022-08-19T01:01:00;1.35;;;1.10;;
69087;SDS011;56190;43.562;5.036;2022-08-19T01:03:25;2.95;;;1.58;;
69087;SDS011;56190;43.562;5.036;2022-08-19T01:05:51;1.30;;;1.20;;
69087;SDS011;56190;43.562;5.036;2022-08-19T01:08:19;1.33;;;1.17;;
69087;SDS011;56190;43.562;5.036;2022-08-19T01:10:46;1.25;;;1.15;;
69087;SDS011;56190;43.562;5.036;2022-08-19T01:13:14;3.83;;;1.60;;
69087;SDS011;56190;43.562;5.036;2022-08-19T01:15:46;1.63;;;1.40;;
69087;SDS011;56190;43.562;5.036;2022-08-19T01:18:14;1.65;;;1.55;;
69087;SDS011;56190;43.562;5.036;2022-08-19T01:20:40;2.67;;;1.20;;
69087;SDS011;56190;43.562;5.036;2022-08-19T01:23:06;1.60;;;1.50;;
69087;SDS011;56190;43.562;5.036;2022-08-19T01:25:51;1.50;;;1.30;;
69087;SDS011;56190;43.562;5.036;2022-08-19T01:28:18;2.33;;;1.30;;
69087;SDS011;56190;43.562;5.036;2022-08-19T01:30:44;2.42;;;1.35;;
69087;SDS011;56190;43.562;5.036;2022-08-19T01:33:09;1.85;;;1.40;;
69087;SDS011;56190;43.562;5.036;2022-08-19T01:35:34;2.45;;;1.40;;
69087;SDS011;56190;43.562;5.036;2022-08-19T01:38:00;2.22;;;1.27;;
69087;SDS011;56190;43.562;5.036;2022-08-19T01:40:28;4.80;;;1.50;;
69087;SDS011;56190;43.562;5.036;2022-08-19T01:42:54;1.45;;;1.20;;
69087;SDS011;56190;43.562;5.036;2022-08-19T01:45:20;3.05;;;1.20;;
69087;SDS011;56190;43.562;5.036;2022-08-19T01:47:46;1.10;;;1.00;;
69087;SDS011;56190;43.562;5.036;2022-08-19T01:50:11;1.70;;;1.60;;
69087;SDS011;56190;43.562;5.036;2022-08-19T01:52:38;4.05;;;1.40;;
69087;SDS011;56190;43.562;5.036;2022-08-19T01:55:04;1.40;;;1.25;;
69087;SDS011;56190;43.562;5.036;2022-08-19T01:57:29;1.50;;;1.40;;
69087;SDS011;56190;43.562;5.036;2022-08-19T01:59:55;1.75;;;1.30;;
69087;SDS011;56190;43.562;5.036;2022-08-19T02:02:21;1.50;;;1.38;;
69087;SDS011;56190;43.562;5.036;2022-08-19T02:04:46;2.08;;;1.15;;
69087;SDS011;56190;43.562;5.036;2022-08-19T02:07:12;1.83;;;1.30;;
69087;SDS011;56190;43.562;5.036;2022-08-19T02:09:37;1.77;;;1.30;;
69087;SDS011;56190;43.562;5.036;2022-08-19T02:12:03;1.60;;;1.40;;
69087;SDS011;56190;43.562;5.036;2022-08-19T02:14:29;2.80;;;1.38;;
69087;SDS011;56190;43.562;5.036;2022-08-19T02:16:54;2.25;;;1.42;;
69087;SDS011;56190;43.562;5.036;2022-08-19T02:19:20;3.17;;;1.33;;
69087;SDS011;56190;43.562;5.036;2022-08-19T02:21:45;2.45;;;1.10;;
69087;SDS011;56190;43.562;5.036;2022-08-19T02:24:10;2.10;;;1.30;;
69087;SDS011;56190;43.562;5.036;2022-08-19T02:26:37;3.88;;;1.75;;
69087;SDS011;56190;43.562;5.036;2022-08-19T02:29:02;1.60;;;1.48;;
69087;SDS011;56190;43.562;5.036;2022-08-19T02:31:27;1.33;;;1.20;;
69087;SDS011;56190;43.562;5.036;2022-08-19T02:33:53;3.70;;;1.30;;
69087;SDS011;56190;43.562;5.036;2022-08-19T02:36:20;1.77;;;1.10;;
69087;SDS011;56190;43.562;5.036;2022-08-19T02:38:45;2.25;;;1.25;;
69087;SDS011;56190;43.562;5.036;2022-08-19T02:41:12;1.95;;;1.35;;
69087;SDS011;56190;43.562;5.036;2022-08-19T02:43:37;2.70;;;1.25;;
69087;SDS011;56190;43.562;5.036;2022-08-19T02:46:18;1.15;;;1.05;;
69087;SDS011;56190;43.562;5.036;2022-08-19T02:48:46;1.70;;;1.33;;
69087;SDS011;56190;43.562;5.036;2022-08-19T02:51:15;1.50;;;1.20;;
69087;SDS011;56190;43.562;5.036;2022-08-19T02:53:41;3.45;;;1.70;;
69087;SDS011;56190;43.562;5.036;2022-08-19T02:56:06;2.45;;;1.70;;
69087;SDS011;56190;43.562;5.036;2022-08-19T02:58:32;1.88;;;1.60;;
69087;SDS011;56190;43.562;5.036;2022-08-19T03:00:58;2.42;;;1.50;;
69087;SDS011;56190;43.562;5.036;2022-08-19T03:03:23;2.72;;;2.00;;
69087;SDS011;56190;43.562;5.036;2022-08-19T03:05:48;2.95;;;2.20;;
69087;SDS011;56190;43.562;5.036;2022-08-19T03:08:14;3.10;;;2.50;;
69087;SDS011;56190;43.562;5.036;2022-08-19T03:10:44;2.33;;;2.13;;
69087;SDS011;56190;43.562;5.036;2022-08-19T03:13:10;2.55;;;2.35;;
69087;SDS011;56190;43.562;5.036;2022-08-19T03:15:38;3.60;;;2.17;;
69087;SDS011;56190;43.562;5.036;2022-08-19T03:18:03;3.67;;;2.17;;
69087;SDS011;56190;43.562;5.036;2022-08-19T03:20:29;2.40;;;2.20;;
69087;SDS011;56190;43.562;5.036;2022-08-19T03:22:54;2.38;;;2.10;;
69087;SDS011;56190;43.562;5.036;2022-08-19T03:25:19;2.67;;;2.10;;
69087;SDS011;56190;43.562;5.036;2022-08-19T03:27:44;2.42;;;2.22;;
69087;SDS011;56190;43.562;5.036;2022-08-19T03:30:13;2.35;;;2.15;;
69087;SDS011;56190;43.562;5.036;2022-08-19T03:32:39;2.35;;;2.15;;
69087;SDS011;56190;43.562;5.036;2022-08-19T03:35:04;3.38;;;2.03;;
69087;SDS011;56190;43.562;5.036;2022-08-19T03:37:29;2.20;;;2.00;;
69087;SDS011;56190;43.562;5.036;2022-08-19T03:39:55;2.47;;;2.28;;
69087;SDS011;56190;43.562;5.036;2022-08-19T03:42:20;2.78;;;2.15;;
69087;SDS011;56190;43.562;5.036;2022-08-19T03:44:46;2.67;;;2.22;;
69087;SDS011;56190;43.562;5.036;2022-08-19T03:47:11;2.42;;;2.20;;
69087;SDS011;56190;43.562;5.036;2022-08-19T03:49:40;2.60;;;2.10;;
69087;SDS011;56190;43.562;5.036;2022-08-19T03:52:06;2.20;;;2.00;;
69087;SDS011;56190;43.562;5.036;2022-08-19T03:54:34;5.47;;;2.28;;
69087;SDS011;56190;43.562;5.036;2022-08-19T03:56:59;2.10;;;1.90;;
69087;SDS011;56190;43.562;5.036;2022-08-19T03:59:26;2.92;;;1.85;;
69087;SDS011;56190;43.562;5.036;2022-08-19T04:01:55;2.83;;;1.90;;
69087;SDS011;56190;43.562;5.036;2022-08-19T04:04:21;3.72;;;1.88;;
69087;SDS011;56190;43.562;5.036;2022-08-19T04:06:46;2.28;;;1.90;;
69087;SDS011;56190;43.562;5.036;2022-08-19T04:09:12;3.33;;;2.13;;
69087;SDS011;56190;43.562;5.036;2022-08-19T04:11:42;2.58;;;2.30;;
69087;SDS011;56190;43.562;5.036;2022-08-19T04:14:09;2.35;;;2.10;;
69087;SDS011;56190;43.562;5.036;2022-08-19T04:16:34;2.05;;;1.95;;
69087;SDS011;56190;43.562;5.036;2022-08-19T04:19:00;2.70;;;2.20;;
69087;SDS011;56190;43.562;5.036;2022-08-19T04:21:26;2.60;;;2.20;;
69087;SDS011;56190;43.562;5.036;2022-08-19T04:23:51;3.15;;;2.25;;
69087;SDS011;56190;43.562;5.036;2022-08-19T04:26:18;2.50;;;2.30;;
69087;SDS011;56190;43.562;5.036;2022-08-19T04:28:44;4.65;;;2.20;;
69087;SDS011;56190;43.562;5.036;2022-08-19T04:31:14;3.85;;;1.98;;
69087;SDS011;56190;43.562;5.036;2022-08-19T04:33:40;2.30;;;2.10;;
69087;SDS011;56190;43.562;5.036;2022-08-19T04:36:05;5.53;;;2.35;;
69087;SDS011;56190;43.562;5.036;2022-08-19T04:38:31;2.50;;;1.98;;
69087;SDS011;56190;43.562;5.036;2022-08-19T04:40:56;4.35;;;2.30;;
69087;SDS011;56190;43.562;5.036;2022-08-19T04:43:40;4.05;;;2.30;;
69087;SDS011;56190;43.562;5.036;2022-08-19T04:46:06;2.40;;;2.20;;
69087;SDS011;56190;43.562;5.036;2022-08-19T04:48:31;2.63;;;1.95;;
69087;SDS011;56190;43.562;5.036;2022-08-19T04:50:57;2.80;;;2.17;;
69087;SDS011;56190;43.562;5.036;2022-08-19T04:53:26;2.80;;;2.25;;
69087;SDS011;56190;43.562;5.036;2022-08-19T04:55:53;3.05;;;2.10;;
69087;SDS011;56190;43.562;5.036;2022-08-19T04:58:18;3.03;;;2.03;;
69087;SDS011;56190;43.562;5.036;2022-08-19T05:00:44;2.40;;;2.20;;
69087;SDS011;56190;43.562;5.036;2022-08-19T05:03:09;2.50;;;2.30;;
69087;SDS011;56190;43.562;5.036;2022-08-19T05:05:38;2.85;;;2.10;;
69087;SDS011;56190;43.562;5.036;2022-08-19T05:08:04;2.53;;;2.10;;
69087;SDS011;56190;43.562;5.036;2022-08-19T05:10:29;2.78;;;2.25;;
69087;SDS011;56190;43.562;5.036;2022-08-19T05:12:55;3.65;;;2.30;;
69087;SDS011;56190;43.562;5.036;2022-08-19T05:15:22;3.00;;;2.20;;
69087;SDS011;56190;43.562;5.036;2022-08-19T05:17:47;2.47;;;2.22;;
69087;SDS011;56190;43.562;5.036;2022-08-19T05:20:32;4.35;;;2.13;;
69087;SDS011;56190;43.562;5.036;2022-08-19T05:23:16;4.65;;;2.28;;
69087;SDS011;56190;43.562;5.036;2022-08-19T05:25:42;2.72;;;1.90;;
69087;SDS011;56190;43.562;5.036;2022-08-19T05:28:07;3.00;;;1.90;;
69087;SDS011;56190;43.562;5.036;2022-08-19T05:30:32;3.63;;;1.95;;
69087;SDS011;56190;43.562;5.036;2022-08-19T05:32:59;2.50;;;1.70;;
69087;SDS011;56190;43.562;5.036;2022-08-19T05:35:24;4.32;;;1.52;;
69087;SDS011;56190;43.562;5.036;2022-08-19T05:37:49;2.05;;;1.75;;
69087;SDS011;56190;43.562;5.036;2022-08-19T05:40:15;4.32;;;1.88;;
69087;SDS011;56190;43.562;5.036;2022-08-19T05:42:40;3.55;;;1.67;;
69087;SDS011;56190;43.562;5.036;2022-08-19T05:45:05;1.60;;;1.50;;
69087;SDS011;56190;43.562;5.036;2022-08-19T05:47:31;2.35;;;1.60;;
69087;SDS011;56190;43.562;5.036;2022-08-19T05:49:57;4.57;;;1.50;;
69087;SDS011;56190;43.562;5.036;2022-08-19T05:52:22;2.10;;;1.38;;
69087;SDS011;56190;43.562;5.036;2022-08-19T05:54:47;3.17;;;1.25;;
69087;SDS011;56190;43.562;5.036;2022-08-19T05:57:13;2.47;;;1.50;;
69087;SDS011;56190;43.562;5.036;2022-08-19T05:59:38;2.22;;;1.50;;
69087;SDS011;56190;43.562;5.036;2022-08-19T06:02:04;1.58;;;1.45;;
69087;SDS011;56190;43.562;5.036;2022-08-19T06:04:29;2.50;;;1.90;;
69087;SDS011;56190;43.562;5.036;2022-08-19T06:06:55;1.80;;;1.70;;
69087;SDS011;56190;43.562;5.036;2022-08-19T06:09:21;1.90;;;1.70;;
69087;SDS011;56190;43.562;5.036;2022-08-19T06:11:48;2.22;;;1.95;;
69087;SDS011;56190;43.562;5.036;2022-08-19T06:14:15;3.42;;;1.95;;
69087;SDS011;56190;43.562;5.036;2022-08-19T06:16:41;1.90;;;1.70;;
69087;SDS011;56190;43.562;5.036;2022-08-19T06:19:08;3.47;;;2.33;;
69087;SDS011;56190;43.562;5.036;2022-08-19T06:21:35;3.35;;;1.95;;
69087;SDS011;56190;43.562;5.036;2022-08-19T06:24:02;4.60;;;1.70;;
69087;SDS011;56190;43.562;5.036;2022-08-19T06:26:28;2.85;;;1.80;;
69087;SDS011;56190;43.562;5.036;2022-08-19T06:28:53;2.88;;;1.77;;
69087;SDS011;56190;43.562;5.036;2022-08-19T06:31:20;2.72;;;1.80;;
69087;SDS011;56190;43.562;5.036;2022-08-19T06:33:46;2.38;;;1.75;;
69087;SDS011;56190;43.562;5.036;2022-08-19T06:38:43;4.00;;;2.08;;
69087;SDS011;56190;43.562;5.036;2022-08-19T06:41:08;1.75;;;1.65;;
69087;SDS011;56190;43.562;5.036;2022-08-19T06:43:34;2.17;;;1.85;;
69087;SDS011;56190;43.562;5.036;2022-08-19T06:46:01;2.75;;;1.65;;
69087;SDS011;56190;43.562;5.036;2022-08-19T06:48:28;3.17;;;1.80;;
69087;SDS011;56190;43.562;5.036;2022-08-19T06:50:53;1.95;;;1.70;;
69087;SDS011;56190;43.562;5.036;2022-08-19T06:53:19;2.72;;;1.80;;
69087;SDS011;56190;43.562;5.036;2022-08-19T06:55:44;2.20;;;1.92;;
69087;SDS011;56190;43.562;5.036;2022-08-19T06:58:10;2.25;;;2.08;;
69087;SDS011;56190;43.562;5.036;2022-08-19T07:00:35;3.17;;;2.30;;
69087;SDS011;56190;43.562;5.036;2022-08-19T07:03:01;4.10;;;2.10;;
69087;SDS011;56190;43.562;5.036;2022-08-19T07:05:27;2.88;;;1.98;;
69087;SDS011;56190;43.562;5.036;2022-08-19T07:07:52;2.42;;;2.20;;
69087;SDS011;56190;43.562;5.036;2022-08-19T07:10:18;2.30;;;2.10;;
69087;SDS011;56190;43.562;5.036;2022-08-19T07:12:44;3.97;;;2.20;;
69087;SDS011;56190;43.562;5.036;2022-08-19T07:15:09;4.72;;;2.47;;
69087;SDS011;56190;43.562;5.036;2022-08-19T07:17:35;3.25;;;2.00;;
69087;SDS011;56190;43.562;5.036;2022-08-19T07:20:04;2.83;;;2.20;;
69087;SDS011;56190;43.562;5.036;2022-08-19T07:22:29;2.40;;;2.20;;
69087;SDS011;56190;43.562;5.036;2022-08-19T07:24:56;3.05;;;2.55;;
69087;SDS011;56190;43.562;5.036;2022-08-19T07:27:21;4.72;;;2.72;;
69087;SDS011;56190;43.562;5.036;2022-08-19T07:29:46;4.47;;;2.90;;
69087;SDS011;56190;43.562;5.036;2022-08-19T07:32:11;3.20;;;2.67;;
69087;SDS011;56190;43.562;5.036;2022-08-19T07:34:37;3.88;;;2.53;;
69087;SDS011;56190;43.562;5.036;2022-08-19T07:37:03;3.30;;;2.50;;
69087;SDS011;56190;43.562;5.036;2022-08-19T07:39:30;3.42;;;2.63;;
69087;SDS011;56190;43.562;5.036;2022-08-19T07:41:56;3.10;;;2.35;;
69087;SDS011;56190;43.562;5.036;2022-08-19T07:44:22;5.63;;;2.63;;
69087;SDS011;56190;43.562;5.036;2022-08-19T07:46:49;5.90;;;2.92;;
69087;SDS011;56190;43.562;5.036;2022-08-19T07:49:16;4.20;;;2.60;;
69087;SDS011;56190;43.562;5.036;2022-08-19T07:51:45;3.00;;;2.50;;
69087;SDS011;56190;43.562;5.036;2022-08-19T07:54:11;3.10;;;2.70;;
69087;SDS011;56190;43.562;5.036;2022-08-19T07:56:36;2.80;;;2.50;;
69087;SDS011;56190;43.562;5.036;2022-08-19T07:59:02;4.35;;;2.80;;
69087;SDS011;56190;43.562;5.036;2022-08-19T08:01:27;4.45;;;2.70;;
69087;SDS011;56190;43.562;5.036;2022-08-19T08:03:53;3.47;;;2.88;;
69087;SDS011;56190;43.562;5.036;2022-08-19T08:06:37;3.40;;;3.10;;
69087;SDS011;56190;43.562;5.036;2022-08-19T08:09:35;4.47;;;2.70;;
69087;SDS011;56190;43.562;5.036;2022-08-19T08:12:02;2.92;;;2.63;;
69087;SDS011;56190;43.562;5.036;2022-08-19T08:14:33;4.50;;;2.58;;
69087;SDS011;56190;43.562;5.036;2022-08-19T08:17:00;3.25;;;2.53;;
69087;SDS011;56190;43.562;5.036;2022-08-19T08:19:26;3.08;;;2.47;;
69087;SDS011;56190;43.562;5.036;2022-08-19T08:21:52;3.13;;;2.53;;
69087;SDS011;56190;43.562;5.036;2022-08-19T08:24:17;3.80;;;2.40;;
69087;SDS011;56190;43.562;5.036;2022-08-19T08:26:43;3.30;;;2.60;;
69087;SDS011;56190;43.562;5.036;2022-08-19T08:29:09;4.97;;;2.58;;
69087;SDS011;56190;43.562;5.036;2022-08-19T08:31:36;4.22;;;2.53;;
69087;SDS011;56190;43.562;5.036;2022-08-19T08:34:02;3.97;;;2.85;;
69087;SDS011;56190;43.562;5.036;2022-08-19T08:36:27;2.97;;;2.30;;
69087;SDS011;56190;43.562;5.036;2022-08-19T08:38:53;3.63;;;2.80;;
69087;SDS011;56190;43.562;5.036;2022-08-19T08:43:47;2.83;;;2.60;;
69087;SDS011;56190;43.562;5.036;2022-08-19T08:46:13;3.67;;;2.70;;
69087;SDS011;56190;43.562;5.036;2022-08-19T08:51:09;4.10;;;3.05;;
69087;SDS011;56190;43.562;5.036;2022-08-19T08:53:35;3.88;;;2.72;;
69087;SDS011;56190;43.562;5.036;2022-08-19T08:56:02;3.30;;;2.83;;
69087;SDS011;56190;43.562;5.036;2022-08-19T08:58:42;3.95;;;3.25;;
69087;SDS011;56190;43.562;5.036;2022-08-19T09:01:10;4.78;;;2.72;;
69087;SDS011;56190;43.562;5.036;2022-08-19T09:03:36;3.45;;;2.80;;
69087;SDS011;56190;43.562;5.036;2022-08-19T09:10:58;5.70;;;2.87;;
69087;SDS011;56190;43.562;5.036;2022-08-19T09:15:53;3.92;;;3.33;;
69087;SDS011;56190;43.562;5.036;2022-08-19T09:18:21;3.83;;;2.90;;
69087;SDS011;56190;43.562;5.036;2022-08-19T09:20:47;3.45;;;2.80;;
69087;SDS011;56190;43.562;5.036;2022-08-19T09:23:12;3.45;;;2.53;;
69087;SDS011;56190;43.562;5.036;2022-08-19T09:25:38;5.05;;;3.15;;
69087;SDS011;56190;43.562;5.036;2022-08-19T09:28:05;4.50;;;2.90;;
69087;SDS011;56190;43.562;5.036;2022-08-19T09:30:32;3.40;;;2.50;;
69087;SDS011;56190;43.562;5.036;2022-08-19T09:32:58;5.15;;;2.65;;
69087;SDS011;56190;43.562;5.036;2022-08-19T09:35:25;5.25;;;2.83;;
69087;SDS011;56190;43.562;5.036;2022-08-19T09:37:53;7.28;;;2.50;;
69087;SDS011;56190;43.562;5.036;2022-08-19T09:40:20;3.33;;;2.80;;
69087;SDS011;56190;43.562;5.036;2022-08-19T09:42:46;4.20;;;2.53;;
69087;SDS011;56190;43.562;5.036;2022-08-19T09:45:13;9.38;;;3.08;;
69087;SDS011;56190;43.562;5.036;2022-08-19T09:47:42;3.30;;;2.67;;
69087;SDS011;56190;43.562;5.036;2022-08-19T09:50:08;3.70;;;2.63;;
69087;SDS011;56190;43.562;5.036;2022-08-19T09:52:34;3.80;;;2.60;;
69087;SDS011;56190;43.562;5.036;2022-08-19T09:55:02;4.63;;;2.90;;
69087;SDS011;56190;43.562;5.036;2022-08-19T09:57:27;3.15;;;2.45;;
69087;SDS011;56190;43.562;5.036;2022-08-19T09:59:53;3.75;;;2.90;;
69087;SDS011;56190;43.562;5.036;2022-08-19T10:02:19;3.58;;;2.60;;
69087;SDS011;56190;43.562;5.036;2022-08-19T10:04:47;2.95;;;2.75;;
69087;SDS011;56190;43.562;5.036;2022-08-19T10:10:04;3.90;;;2.72;;
69087;SDS011;56190;43.562;5.036;2022-08-19T10:12:31;5.63;;;2.90;;
69087;SDS011;56190;43.562;5.036;2022-08-19T10:15:09;6.82;;;3.08;;
69087;SDS011;56190;43.562;5.036;2022-08-19T10:17:38;5.07;;;2.80;;
69087;SDS011;56190;43.562;5.036;2022-08-19T10:20:07;2.60;;;2.40;;
69087;SDS011;56190;43.562;5.036;2022-08-19T10:23:01;3.20;;;2.60;;
69087;SDS011;56190;43.562;5.036;2022-08-19T10:25:36;2.50;;;2.30;;
69087;SDS011;56190;43.562;5.036;2022-08-19T10:28:18;5.97;;;2.50;;
69087;SDS011;56190;43.562;5.036;2022-08-19T21:03:24;5.17;;;3.63;;
69087;SDS011;56190;43.562;5.036;2022-08-19T21:05:50;6.43;;;3.45;;
69087;SDS011;56190;43.562;5.036;2022-08-19T21:08:16;5.82;;;3.78;;
69087;SDS011;56190;43.562;5.036;2022-08-19T21:10:43;5.00;;;3.53;;
69087;SDS011;56190;43.562;5.036;2022-08-19T21:15:40;5.95;;;4.00;;
69087;SDS011;56190;43.562;5.036;2022-08-19T21:18:11;7.10;;;4.22;;
69087;SDS011;56190;43.562;5.036;2022-08-19T21:20:36;5.85;;;3.70;;
69087;SDS011;56190;43.562;5.036;2022-08-19T21:23:15;5.30;;;4.07;;
69087;SDS011;56190;43.562;5.036;2022-08-19T21:25:47;5.38;;;3.97;;
69087;SDS011;56190;43.562;5.036;2022-08-19T21:31:45;5.13;;;4.20;;
69087;SDS011;56190;43.562;5.036;2022-08-19T21:40:24;6.47;;;4.35;;
69087;SDS011;56190;43.562;5.036;2022-08-19T21:43:02;8.23;;;3.85;;
69087;SDS011;56190;43.562;5.036;2022-08-19T21:45:38;4.63;;;3.65;;
69087;SDS011;56190;43.562;5.036;2022-08-19T21:48:29;4.63;;;3.97;;
69087;SDS011;56190;43.562;5.036;2022-08-19T21:56:47;4.68;;;3.60;;
69087;SDS011;56190;43.562;5.036;2022-08-19T21:59:31;4.18;;;3.45;;
69087;SDS011;56190;43.562;5.036;2022-08-19T22:24:06;5.85;;;3.55;;
69087;SDS011;56190;43.562;5.036;2022-08-19T22:27:12;3.97;;;3.58;;
69087;SDS011;56190;43.562;5.036;2022-08-19T22:32:33;3.58;;;3.28;;
69087;SDS011;56190;43.562;5.036;2022-08-19T22:47:25;4.43;;;2.63;;
69087;SDS011;56190;43.562;5.036;2022-08-19T22:55:35;3.53;;;2.70;;
69087;SDS011;56190;43.562;5.036;2022-08-19T23:01:56;2.78;;;2.50;;
69087;SDS011;56190;43.562;5.036;2022-08-19T23:05:14;2.92;;;2.63;;
